マレ の空港の天気 - METARとTAF

マレ国際空港 ( VRMM / MLE ) - モルディブ Hulhule Island, North Male Atoll
飛行場実況気象(Metar)
観測時間06/24 14:00 MVT (06/24 09:00 UTC)
風向・風速西北西 6m/s
視程10km以上
天気現象
少しの雲 雲底高度 580m
気温32℃
湿度75%
気圧1008hPa
METARVRMM 240900Z 29012KT 9999 FEW019 32/27 Q1008 NOSIG
過去の天気等 Google飛行場航空写真 Wunderground天気予報

過去48時間のMETAR

飛行場予報(TAF)
発表時間: 6/24 10:00 MVT (6/24 05:00 UTC)
予報対象時間: 24日11時 MVT ~ 25日17時 MVT
風向・風速西 8m/s
視程10km以上
少しの雲 雲底高度 550m
24日11時 MVT ~ 24日17時 MVT に一時的に
少しの積乱雲 雲底高度 550m
TAF VRMM 240500Z 2406/2512 27015KT 9999 FEW018
TEMPO 2406/2412 FEW018CB